createdAt,value
2018-12-30T00:03:44.421Z,98002.27
2018-12-30T00:09:05.032Z,97992.38
2018-12-30T00:14:24.565Z,97999.20
2018-12-30T00:19:45.406Z,98003.34
2018-12-30T00:25:04.963Z,97987.89
2018-12-30T00:30:25.560Z,97979.54
2018-12-30T00:35:44.821Z,97976.34
2018-12-30T00:41:04.368Z,97980.41
2018-12-30T00:46:24.112Z,97971.27
2018-12-30T00:51:43.577Z,97971.88
2018-12-30T00:57:02.976Z,97972.47
2018-12-30T01:02:22.701Z,97980.02
2018-12-30T01:07:41.910Z,97983.95
2018-12-30T01:13:01.504Z,97992.93
2018-12-30T01:18:21.372Z,97986.73
2018-12-30T01:23:41.588Z,97987.30
2018-12-30T01:29:01.462Z,97979.47
2018-12-30T01:34:20.756Z,97963.53
2018-12-30T01:39:40.343Z,97941.61
2018-12-30T01:44:59.959Z,97947.62
2018-12-30T01:50:19.511Z,97941.41
2018-12-30T01:55:39.255Z,97956.62
2018-12-30T02:00:58.931Z,97966.45
2018-12-30T02:06:18.255Z,97974.39
2018-12-30T02:11:37.422Z,97968.81
2018-12-30T02:16:58.459Z,97982.81
2018-12-30T02:22:17.747Z,97985.44
2018-12-30T02:27:37.699Z,97985.76
2018-12-30T02:32:57.463Z,97992.56
2018-12-30T02:38:17.105Z,97994.27
2018-12-30T02:43:36.640Z,97991.20
2018-12-30T02:48:56.775Z,97977.26
2018-12-30T02:54:15.876Z,97975.62
2018-12-30T02:59:35.307Z,97976.39
2018-12-30T03:04:54.694Z,97952.05
2018-12-30T03:10:14.473Z,97965.09
2018-12-30T03:15:34.643Z,97950.98
2018-12-30T03:20:54.122Z,97933.51
2018-12-30T03:26:13.792Z,97929.78
2018-12-30T03:31:33.251Z,97961.75
2018-12-30T03:36:52.335Z,97925.23
2018-12-30T03:42:11.627Z,97933.89
2018-12-30T03:47:31.154Z,97932.86
2018-12-30T03:52:50.098Z,97922.93
2018-12-30T03:58:10.458Z,97923.42
2018-12-30T04:03:29.857Z,97928.02
2018-12-30T04:08:49.168Z,97925.03
2018-12-30T04:14:08.920Z,97920.77
2018-12-30T04:19:28.332Z,97929.20
2018-12-30T04:24:48.082Z,97920.83
2018-12-30T04:30:07.324Z,97913.50
2018-12-30T04:35:26.853Z,97923.75
2018-12-30T04:40:46.043Z,97928.09
2018-12-30T04:46:05.485Z,97922.19
2018-12-30T04:51:24.745Z,97925.14
2018-12-30T04:56:44.023Z,97950.28
2018-12-30T05:02:03.255Z,97954.30
2018-12-30T05:07:22.037Z,97945.36
2018-12-30T05:12:41.647Z,97943.92
2018-12-30T05:18:00.778Z,97940.69
2018-12-30T05:23:20.598Z,97951.84
2018-12-30T05:28:40.159Z,97939.42
2018-12-30T05:33:59.903Z,97929.73
2018-12-30T05:39:19.368Z,97943.27
2018-12-30T05:44:39.086Z,97943.59
2018-12-30T05:49:58.266Z,97929.80
2018-12-30T05:55:17.483Z,97936.07
2018-12-30T06:00:36.813Z,97940.64
2018-12-30T06:05:55.902Z,97938.21
2018-12-30T06:11:16.694Z,97942.84
2018-12-30T06:16:35.867Z,97945.55
2018-12-30T06:21:55.992Z,97924.70
2018-12-30T06:27:15.644Z,97911.48
2018-12-30T06:32:34.588Z,97936.42
2018-12-30T06:37:54.472Z,97938.56
2018-12-30T06:43:13.401Z,97931.25
2018-12-30T06:48:33.445Z,97947.53
2018-12-30T06:53:52.452Z,97940.52
2018-12-30T06:59:12.153Z,97964.89
2018-12-30T07:04:31.252Z,97969.27
2018-12-30T07:09:51.743Z,97980.63
2018-12-30T07:15:11.688Z,97962.23
2018-12-30T07:20:31.551Z,97968.19
2018-12-30T07:25:51.776Z,97961.70
2018-12-30T07:31:11.556Z,97973.36
2018-12-30T07:36:31.254Z,97954.34
2018-12-30T07:41:50.828Z,97956.25
2018-12-30T07:47:09.740Z,97963.88
2018-12-30T07:52:29.604Z,97948.13
2018-12-30T07:57:49.857Z,97944.91
2018-12-30T08:03:11.980Z,97954.95
2018-12-30T08:08:31.859Z,97949.25
2018-12-30T08:13:51.546Z,97957.11
2018-12-30T08:19:10.432Z,97947.06
2018-12-30T08:24:30.230Z,97942.48
2018-12-30T08:29:50.615Z,97955.18
2018-12-30T08:35:09.723Z,97954.90
2018-12-30T08:40:29.177Z,97936.22
2018-12-30T08:45:48.692Z,97946.83
2018-12-30T08:51:10.259Z,97969.58
2018-12-30T08:56:29.091Z,97951.20
2018-12-30T09:01:48.556Z,97952.04
2018-12-30T09:07:07.892Z,97963.70
2018-12-30T09:12:28.415Z,97968.61
2018-12-30T09:17:47.227Z,97962.64
2018-12-30T09:23:07.587Z,97968.34
2018-12-30T09:28:27.445Z,97973.53
2018-12-30T09:33:46.918Z,97971.03
2018-12-30T09:39:07.359Z,97989.47
2018-12-30T09:44:26.381Z,97984.05
2018-12-30T09:49:46.059Z,98001.61
2018-12-30T09:55:05.790Z,97994.83
2018-12-30T10:00:24.874Z,97997.00
2018-12-30T10:05:44.212Z,97999.46
2018-12-30T10:11:04.481Z,98002.17
2018-12-30T10:16:24.324Z,97995.39
2018-12-30T10:21:44.991Z,98011.97
2018-12-30T10:27:04.537Z,98005.98
2018-12-30T10:32:24.567Z,98004.37
2018-12-30T10:37:43.630Z,98004.66
2018-12-30T10:43:03.362Z,98001.12
2018-12-30T10:48:23.157Z,98020.63
2018-12-30T10:53:43.606Z,98005.44
2018-12-30T10:59:02.723Z,97991.08
2018-12-30T11:04:22.558Z,98002.23
2018-12-30T11:09:42.569Z,98002.53
2018-12-30T11:15:01.676Z,97993.06
2018-12-30T11:20:20.998Z,97992.25
2018-12-30T11:25:40.380Z,97997.37
2018-12-30T11:30:59.565Z,97984.87
2018-12-30T11:36:19.072Z,97994.88
2018-12-30T11:41:39.525Z,97974.59
2018-12-30T11:46:59.042Z,97986.22
2018-12-30T11:52:19.198Z,97988.95
2018-12-30T11:57:39.667Z,97991.92
2018-12-30T12:02:59.847Z,97977.30
2018-12-30T12:08:20.401Z,97976.24
2018-12-30T12:13:40.007Z,97988.19
2018-12-30T12:19:01.160Z,97983.59
2018-12-30T12:24:24.431Z,97980.09
2018-12-30T12:29:48.135Z,97992.29
2018-12-30T12:35:07.706Z,98028.64
2018-12-30T12:40:27.391Z,97994.72
2018-12-30T12:45:47.794Z,98004.49
2018-12-30T12:51:07.256Z,98007.22
2018-12-30T12:56:26.661Z,98027.56
2018-12-30T13:01:45.971Z,98021.85
2018-12-30T13:07:05.207Z,98029.42
2018-12-30T13:12:25.326Z,98033.23
2018-12-30T13:17:44.694Z,98054.11
2018-12-30T13:23:04.599Z,98062.55
2018-12-30T13:28:24.014Z,98051.14
2018-12-30T13:33:43.359Z,98065.27
2018-12-30T13:39:03.483Z,98068.25
2018-12-30T13:44:23.236Z,98086.16
2018-12-30T13:49:42.402Z,98106.19
2018-12-30T13:55:02.196Z,98112.47
2018-12-30T14:00:25.606Z,98115.17
2018-12-30T14:05:45.215Z,98139.33
2018-12-30T14:11:06.559Z,98140.68
2018-12-30T14:16:26.561Z,98146.13
2018-12-30T14:21:48.431Z,98174.11
2018-12-30T14:27:08.699Z,98187.45
2018-12-30T14:32:27.901Z,98189.34
2018-12-30T14:37:50.372Z,98211.08
2018-12-30T14:43:10.407Z,98205.14
2018-12-30T14:48:29.630Z,98190.50
2018-12-30T14:53:49.232Z,98205.14
2018-12-30T14:59:08.801Z,98206.02
2018-12-30T15:04:30.738Z,98218.00
2018-12-30T15:09:51.107Z,98205.22
2018-12-30T15:15:10.950Z,98220.43
2018-12-30T15:20:30.585Z,98204.97
2018-12-30T15:25:50.494Z,98222.86
2018-12-30T15:31:09.910Z,98228.03
2018-12-30T15:36:29.730Z,98234.85
2018-12-30T15:41:49.994Z,98234.85
2018-12-30T15:47:09.501Z,98250.03
2018-12-30T15:52:29.101Z,98265.78
2018-12-30T15:57:48.178Z,98253.00
2018-12-30T16:03:07.688Z,98254.08
2018-12-30T16:08:26.847Z,98283.91
2018-12-30T16:13:46.472Z,98252.72
2018-12-30T16:19:05.713Z,98266.30
2018-12-30T16:24:25.456Z,98251.91
2018-12-30T16:29:45.174Z,98278.76
2018-12-30T16:35:04.867Z,98276.05
2018-12-30T16:40:24.263Z,98280.66
2018-12-30T16:45:44.200Z,98280.12
2018-12-30T16:51:04.187Z,98272.00
2018-12-30T16:56:23.304Z,98292.87
2018-12-30T17:01:42.967Z,98277.69
2018-12-30T17:07:02.474Z,98277.44
2018-12-30T17:12:23.562Z,98308.14
2018-12-30T17:17:43.764Z,98285.61
2018-12-30T17:23:04.445Z,98305.94
2018-12-30T17:28:25.894Z,98318.69
2018-12-30T17:33:45.567Z,98305.11
2018-12-30T17:39:06.267Z,98296.94
2018-12-30T17:44:26.348Z,98298.58
2018-12-30T17:49:47.365Z,98279.61
2018-12-30T17:55:07.025Z,98305.65
2018-12-30T18:00:26.709Z,98327.65
2018-12-30T18:05:46.344Z,98329.80
2018-12-30T18:11:05.964Z,98355.33
2018-12-30T18:16:26.505Z,98338.01
2018-12-30T18:21:47.561Z,98361.33
2018-12-30T18:27:08.054Z,98352.12
2018-12-30T18:32:29.369Z,98342.33
2018-12-30T18:37:49.285Z,98359.72
2018-12-30T18:43:09.667Z,98362.19
2018-12-30T18:48:29.286Z,98348.58
2018-12-30T18:53:49.195Z,98348.58
2018-12-30T18:59:08.801Z,98344.80
2018-12-30T19:04:28.818Z,98346.97
2018-12-30T19:09:48.889Z,98333.69
2018-12-30T19:15:20.382Z,98351.33
2018-12-30T19:20:39.633Z,98352.44
2018-12-30T19:26:01.181Z,98346.72
2018-12-30T19:31:18.988Z,98361.44
2018-12-30T19:36:38.695Z,98353.80
2018-12-30T19:41:59.880Z,98356.80
2018-12-30T19:47:21.264Z,98345.62
2018-12-30T19:52:41.877Z,98355.94
2018-12-30T19:58:01.988Z,98336.97
2018-12-30T20:03:22.116Z,98329.64
2018-12-30T20:08:42.841Z,98328.28
2018-12-30T20:14:02.909Z,98333.15
2018-12-30T20:19:23.366Z,98336.08
2018-12-30T20:24:43.245Z,98310.55
2018-12-30T20:30:02.727Z,98306.47
2018-12-30T20:35:23.746Z,98280.66
2018-12-30T20:40:43.039Z,98299.87
2018-12-30T20:46:03.338Z,98284.91
2018-12-30T20:51:23.522Z,98314.83
2018-12-30T20:56:43.321Z,98296.87
2018-12-30T21:02:03.868Z,98286.83
2018-12-30T21:07:23.786Z,98302.30
2018-12-30T21:12:43.525Z,98281.16
2018-12-30T21:18:04.182Z,98292.55
2018-12-30T21:23:24.430Z,98292.02
2018-12-30T21:28:44.463Z,98307.80
2018-12-30T21:34:05.844Z,98290.69
2018-12-30T21:39:25.442Z,98285.80
2018-12-30T21:44:47.647Z,98284.13
2018-12-30T21:50:08.302Z,98296.33
2018-12-30T21:55:27.747Z,98293.08
2018-12-30T22:00:48.571Z,98296.58
2018-12-30T22:06:07.884Z,98304.22
2018-12-30T22:11:27.274Z,98296.58
2018-12-30T22:16:46.844Z,98284.91
2018-12-30T22:22:06.254Z,98290.08
2018-12-30T22:27:27.084Z,98274.88
2018-12-30T22:32:46.783Z,98285.16
2018-12-30T22:38:06.458Z,98289.55
2018-12-30T22:43:26.854Z,98296.33
2018-12-30T22:48:46.980Z,98305.83
2018-12-30T22:54:06.605Z,98300.90
2018-12-30T22:59:26.032Z,98313.69
2018-12-30T23:04:45.220Z,98316.65
2018-12-30T23:10:04.607Z,98313.94
2018-12-30T23:15:23.941Z,98294.36
2018-12-30T23:20:43.634Z,98318.21
2018-12-30T23:26:03.355Z,98325.24
2018-12-30T23:31:23.340Z,98323.35
2018-12-30T23:36:43.429Z,98312.45
2018-12-30T23:42:02.750Z,98331.40
2018-12-30T23:47:22.360Z,98321.66
2018-12-30T23:52:41.896Z,98327.62
2018-12-30T23:58:01.224Z,98304.52
